Tukiboshimaru — JI3695 — position and weather

sailwx.info

Track history (hours):
 
Tides and Currents Weather Stations Pressure Air Temp Water Temp Dewpoint Dewpoint Depression Visibility Wind Speed Wind Dir Waves Ship Positions

Tukiboshimaru

Last reported at 2017-Dec-11 11:02 UTC. Time now 2017-Dec-12 21:56 UTC.
Position N 34°32' E 134°44'.

Length 84 m.

Type: Ship. MMSI: 431301596.

Date/timePositionNaut miles runAvg speedWind from/ knotsBaromVisibWave heightAir tempDewpointWater temp
2017-Dec-11 11:02N 34°32' E 134°44'210.4
2017-Dec-11 10:50N 34°33' E 134°46'410.6
2017-Dec-11 10:30N 34°34' E 134°50'5 9.8
2017-Dec-11 10:00N 34°36' E 134°56'5 9.5
2017-Dec-11 09:30N 34°37' E 135°01'510.1
2017-Dec-11 09:00N 34°36' E 135°07'510.9
2017-Dec-11 08:30N 34°36' E 135°14'510.8
2017-Dec-11 08:00N 34°37' E 135°20'510.4
2017-Dec-11 07:30N 34°35' E 135°26'1 2.4
2017-Dec-11 07:00N 34°34' E 135°27'0 0.0
2017-Dec-11 06:30N 34°34' E 135°27'0 0.0
2017-Dec-11 06:00N 34°34' E 135°27'0 0.0
2017-Dec-11 05:30N 34°34' E 135°27'0 0.0
2017-Dec-11 05:00N 34°34' E 135°27'0 0.0
2017-Dec-11 04:30N 34°34' E 135°27'0 0.0
2017-Dec-11 04:00N 34°34' E 135°27'0 0.0
2017-Dec-11 03:27N 34°34' E 135°27'0 0.0
2017-Dec-11 03:00N 34°34' E 135°27'0 0.0
2017-Dec-11 02:30N 34°34' E 135°27'0 0.0
2017-Dec-11 01:57N 34°34' E 135°27'0 0.0
2017-Dec-11 01:30N 34°34' E 135°27'0 0.0
2017-Dec-11 01:00N 34°34' E 135°27'0 0.0
2017-Dec-11 00:30N 34°34' E 135°27'0 0.0
2017-Dec-11 00:00N 34°34' E 135°27'2 3.6
2017-Dec-10 23:30N 34°35' E 135°26'510.8
2017-Dec-10 23:00N 34°36' E 135°19'611.6
2017-Dec-10 22:30N 34°35' E 135°12'611.9
2017-Dec-10 22:00N 34°35' E 135°05'612.0
2017-Dec-10 21:30N 34°37' E 134°58'612.2
2017-Dec-10 21:00N 34°34' E 134°51'611.6
2017-Dec-10 20:30N 34°32' E 134°45'611.6
2017-Dec-10 20:00N 34°30' E 134°38'611.6
2017-Dec-10 19:29N 34°27' E 134°31'9410.1
2017-Dec-10 10:10N 34°05' E 132°41'211.4
2017-Dec-10 09:59N 34°05' E 132°39'9 5.9
2017-Dec-10 08:26N 34°09' E 132°30'410.4
2017-Dec-10 08:00N 34°14' E 132°32'1 1.3
2017-Dec-10 07:28N 34°14' E 132°32'0 0.0
2017-Dec-10 06:59N 34°14' E 132°32'0 0.0
2017-Dec-10 06:29N 34°14' E 132°32'0 0.0
2017-Dec-10 05:59N 34°14' E 132°32'0 0.0
2017-Dec-10 05:29N 34°14' E 132°32'0 0.0
2017-Dec-10 04:59N 34°14' E 132°32'0 0.0
2017-Dec-10 04:29N 34°14' E 132°32'0 0.0
2017-Dec-10 03:59N 34°14' E 132°32'0 0.0
2017-Dec-10 03:29N 34°14' E 132°32'0 0.0
2017-Dec-10 02:56N 34°14' E 132°32'0 0.0
2017-Dec-10 02:29N 34°14' E 132°32'0 0.0
2017-Dec-10 01:56N 34°14' E 132°32'0 0.0
2017-Dec-10 01:29N 34°14' E 132°32'0 0.0
2017-Dec-10 00:59N 34°14' E 132°32'0 0.0
2017-Dec-10 00:29N 34°14' E 132°32'0 0.0
2017-Dec-09 23:55N 34°14' E 132°32'0 0.4
2017-Dec-09 23:28N 34°14' E 132°33'2 4.9
2017-Dec-09 23:00N 34°12' E 132°31'810.7
2017-Dec-09 22:18N 34°05' E 132°27'411.8
2017-Dec-09 21:56N 34°03' E 132°30'511.3
2017-Dec-09 21:30N 34°04' E 132°36'10411.4
2017-Dec-09 12:24N 34°30' E 134°37'711.4
2017-Dec-09 11:45N 34°33' E 134°46'310.8
2017-Dec-09 11:30N 34°34' E 134°49'510.3
2017-Dec-09 11:00N 34°36' E 134°54'5 9.5
2017-Dec-09 10:30N 34°37' E 134°60'4 8.4
2017-Dec-09 10:00N 34°36' E 135°05'510.7
2017-Dec-09 09:30N 34°36' E 135°11'611.4
2017-Dec-09 09:00N 34°36' E 135°18'611.3
2017-Dec-09 08:30N 34°36' E 135°25'2 4.5
2017-Dec-09 07:58N 34°34' E 135°27'0 0.0
2017-Dec-09 07:30N 34°34' E 135°27'0 0.0
2017-Dec-09 07:00N 34°34' E 135°27'0 0.0
2017-Dec-09 06:30N 34°34' E 135°27'0 0.0
2017-Dec-09 06:00N 34°34' E 135°27'0 0.0
2017-Dec-09 05:30N 34°34' E 135°27'0 0.0
2017-Dec-09 05:00N 34°34' E 135°27'0 0.0
2017-Dec-09 04:30N 34°34' E 135°27'0 0.0
2017-Dec-09 04:00N 34°34' E 135°27'0 0.0
2017-Dec-09 03:30N 34°34' E 135°27'0 0.0
2017-Dec-09 03:00N 34°34' E 135°27'0 0.0
2017-Dec-09 02:30N 34°34' E 135°27'0 0.0
2017-Dec-09 02:00N 34°34' E 135°27'0 0.0
2017-Dec-09 01:30N 34°34' E 135°27'0 0.0
2017-Dec-09 01:00N 34°34' E 135°27'0 0.0
2017-Dec-09 00:30N 34°34' E 135°27'0 0.0
2017-Dec-09 00:00N 34°34' E 135°27'0 0.0
2017-Dec-08 23:30N 34°34' E 135°27'0 0.0
2017-Dec-08 23:00N 34°34' E 135°27'2 3.6
2017-Dec-08 22:30N 34°35' E 135°26'510.8
2017-Dec-08 22:00N 34°36' E 135°19'611.7
2017-Dec-08 21:30N 34°35' E 135°12'612.8
2017-Dec-08 21:00N 34°35' E 135°04'713.4
2017-Dec-08 20:30N 34°36' E 134°56'714.0
2017-Dec-08 20:00N 34°33' E 134°48'712.5
2017-Dec-08 19:26N 34°30' E 134°40'612.2
2017-Dec-08 18:59N 34°28' E 134°34'9610.9
2017-Dec-08 10:12N 34°05' E 132°41'211.4
2017-Dec-08 09:59N 34°04' E 132°38'9 6.0
2017-Dec-08 08:27N 34°10' E 132°29'410.0
2017-Dec-08 08:00N 34°14' E 132°32'0 0.6
2017-Dec-08 07:26N 34°14' E 132°32'0 0.0
2017-Dec-08 06:58N 34°14' E 132°32'0 0.0
2017-Dec-08 06:28N 34°14' E 132°32'0 0.0
2017-Dec-08 05:49N 34°14' E 132°32'0 0.0
2017-Dec-08 05:25N 34°14' E 132°32'0 0.0
2017-Dec-08 04:58N 34°14' E 132°32'0 0.0
2017-Dec-08 04:28N 34°14' E 132°32'0 0.0
2017-Dec-08 03:55N 34°14' E 132°32'0 0.0
2017-Dec-08 03:28N 34°14' E 132°32'0 0.0
2017-Dec-08 02:58N 34°14' E 132°32'0 0.0
2017-Dec-08 02:28N 34°14' E 132°32'0 0.0
2017-Dec-08 01:55N 34°14' E 132°32'0 0.0
2017-Dec-08 01:10N 34°14' E 132°32'0 0.0
2017-Dec-08 00:58N 34°14' E 132°32'0 0.0
2017-Dec-08 00:25N 34°14' E 132°32'0 0.0
2017-Dec-07 23:58N 34°14' E 132°32'0 0.0
2017-Dec-07 23:28N 34°14' E 132°32'0 0.0
2017-Dec-07 22:53N 34°14' E 132°32'3 6.7
2017-Dec-07 22:29N 34°12' E 132°30'610.8
2017-Dec-07 21:55N 34°07' E 132°26'611.2
2017-Dec-07 21:25N 34°02' E 132°31'512.3
2017-Dec-07 20:59N 34°04' E 132°37'10311.9
2017-Dec-07 12:21N 34°30' E 134°37'512.3
2017-Dec-07 11:58N 34°32' E 134°43'612.4
2017-Dec-07 11:30N 34°34' E 134°49'612.3
2017-Dec-07 11:00N 34°37' E 134°56'510.4
2017-Dec-07 10:30N 34°37' E 135°02'611.3
2017-Dec-07 10:00N 34°36' E 135°09'612.1
2017-Dec-07 09:30N 34°37' E 135°17'611.9
2017-Dec-07 09:00N 34°36' E 135°24'3 5.8
2017-Dec-07 08:25N 34°34' E 135°27'0 0.0
2017-Dec-07 07:58N 34°34' E 135°27'0 0.0
2017-Dec-07 07:25N 34°34' E 135°27'0 0.0
2017-Dec-07 06:58N 34°34' E 135°27'0 0.0
2017-Dec-07 06:28N 34°34' E 135°27'0 0.0
2017-Dec-07 05:58N 34°34' E 135°27'0 0.0
2017-Dec-07 05:28N 34°34' E 135°27'0 0.0
2017-Dec-07 04:55N 34°34' E 135°27'0 0.0
2017-Dec-07 04:28N 34°34' E 135°27'0 0.0
2017-Dec-07 03:58N 34°34' E 135°27'0 0.0
2017-Dec-07 03:28N 34°34' E 135°27'0 0.0
2017-Dec-07 02:58N 34°34' E 135°27'0 0.0
2017-Dec-07 02:28N 34°34' E 135°27'0 0.1
2017-Dec-07 02:00N 34°34' E 135°27'3 6.9
2017-Dec-07 01:30N 34°36' E 135°24'611.5
2017-Dec-07 01:00N 34°36' E 135°17'611.7
2017-Dec-07 00:30N 34°35' E 135°10'510.8
2017-Dec-07 00:00N 34°36' E 135°03'4 7.4
2017-Dec-06 23:30N 34°37' E 134°59'5 9.6
2017-Dec-06 23:00N 34°35' E 134°54'510.6
2017-Dec-06 22:30N 34°33' E 134°48'611.5
2017-Dec-06 22:00N 34°31' E 134°41'611.9
2017-Dec-06 21:30N 34°29' E 134°35'  
2017-Dec-04 09:16N 34°10' E 132°29'310.9
2017-Dec-04 09:00N 34°12' E 132°31'2 3.9
2017-Dec-04 08:29N 34°14' E 132°32'0 0.0
2017-Dec-04 07:59N 34°14' E 132°32'0 0.0
2017-Dec-04 07:29N 34°14' E 132°32'0 0.0
2017-Dec-04 06:54N 34°14' E 132°32'0 0.0
2017-Dec-04 06:29N 34°14' E 132°32'0 0.0
2017-Dec-04 05:59N 34°14' E 132°32'0 0.0
2017-Dec-04 05:29N 34°14' E 132°32'0 0.0
2017-Dec-04 04:59N 34°14' E 132°32'0 0.0
2017-Dec-04 04:29N 34°14' E 132°32'0 0.0
2017-Dec-04 03:59N 34°14' E 132°32'0 0.0
2017-Dec-04 03:26N 34°14' E 132°32'0 0.0
2017-Dec-04 02:59N 34°14' E 132°32'0 0.0
2017-Dec-04 02:29N 34°14' E 132°32'0 0.0
2017-Dec-04 01:59N 34°14' E 132°32'0 0.0
2017-Dec-04 01:29N 34°14' E 132°32'0 0.0
2017-Dec-04 00:59N 34°14' E 132°32'0 0.0
2017-Dec-04 00:29N 34°14' E 132°32'0 0.0
2017-Dec-03 23:59N 34°14' E 132°32'0 0.0
2017-Dec-03 23:31N 34°14' E 132°32'2 3.6
2017-Dec-03 23:00N 34°12' E 132°31'810.7
2017-Dec-03 22:16N 34°05' E 132°27'412.7
2017-Dec-03 21:56N 34°03' E 132°30'510.6
2017-Dec-03 21:30N 34°04' E 132°36'10611.2
2017-Dec-03 11:57N 34°31' E 134°40'713.4
2017-Dec-03 11:26N 34°34' E 134°48'614.5
2017-Dec-03 11:00N 34°36' E 134°55'713.4
2017-Dec-03 10:31N 34°36' E 135°03'713.1
2017-Dec-03 10:01N 34°36' E 135°11'612.4
2017-Dec-03 09:31N 34°37' E 135°19'611.8
2017-Dec-03 09:00N 34°35' E 135°26'2 3.2
2017-Dec-03 08:30N 34°34' E 135°27'0 0.0
2017-Dec-03 08:00N 34°34' E 135°27'0 0.0
2017-Dec-03 07:30N 34°34' E 135°27'0 0.0
2017-Dec-03 07:00N 34°34' E 135°27'0 0.0
2017-Dec-03 06:30N 34°34' E 135°27'0 0.0
2017-Dec-03 06:00N 34°34' E 135°27'0 0.0
2017-Dec-03 05:30N 34°34' E 135°27'0 0.0
2017-Dec-03 05:00N 34°34' E 135°27'0 0.0
2017-Dec-03 04:30N 34°34' E 135°27'0 0.0
2017-Dec-03 04:00N 34°34' E 135°27'0 0.0
2017-Dec-03 03:30N 34°34' E 135°27'0 0.0
2017-Dec-03 03:00N 34°34' E 135°27'0 0.0
2017-Dec-03 02:30N 34°34' E 135°27'0 0.0
2017-Dec-03 02:00N 34°34' E 135°27'0 0.0
2017-Dec-03 01:30N 34°34' E 135°27'1 1.1
2017-Dec-03 00:58N 34°35' E 135°27'2 4.8
2017-Dec-03 00:31N 34°36' E 135°25'1 2.6
2017-Dec-02 23:59N 34°36' E 135°23'0 0.0
2017-Dec-02 23:29N 34°36' E 135°23'0 0.0
2017-Dec-02 22:59N 34°36' E 135°23'0 0.0
2017-Dec-02 22:29N 34°36' E 135°23'0 0.2
2017-Dec-02 22:00N 34°36' E 135°23'510.3
2017-Dec-02 21:31N 34°35' E 135°17'611.6
2017-Dec-02 21:00N 34°35' E 135°10'611.0
2017-Dec-02 20:30N 34°36' E 135°03'4 7.8
2017-Dec-02 20:00N 34°37' E 134°58'511.0
2017-Dec-02 19:30N 34°34' E 134°53'611.7
2017-Dec-02 19:00N 34°32' E 134°46'611.8
2017-Dec-02 18:30N 34°30' E 134°39'712.0
2017-Dec-02 17:55N 34°27' E 134°31'9412.1
2017-Dec-02 10:09N 34°05' E 132°41'212.5
2017-Dec-02 09:59N 34°05' E 132°39'9 6.0
2017-Dec-02 08:27N 34°10' E 132°29'510.6
2017-Dec-02 08:00N 34°14' E 132°32'0 0.5
2017-Dec-02 07:28N 34°14' E 132°32'0 0.0
2017-Dec-02 06:55N 34°14' E 132°32'0 0.0
2017-Dec-02 06:28N 34°14' E 132°32'0 0.0
2017-Dec-02 05:58N 34°14' E 132°32'0 0.0
2017-Dec-02 05:28N 34°14' E 132°32'0 0.0
2017-Dec-02 04:58N 34°14' E 132°32'0 0.0
2017-Dec-02 04:25N 34°14' E 132°32'0 0.0
2017-Dec-02 03:58N 34°14' E 132°32'0 0.0
2017-Dec-02 03:28N 34°14' E 132°32'0 0.0
2017-Dec-02 02:58N 34°14' E 132°32'0 0.0
2017-Dec-02 02:28N 34°14' E 132°32'0 0.0
2017-Dec-02 01:58N 34°14' E 132°32'0 0.0
2017-Dec-02 01:28N 34°14' E 132°32'0 0.0
2017-Dec-02 00:58N 34°14' E 132°32'0 0.0
2017-Dec-02 00:22N 34°14' E 132°32'0 0.0
2017-Dec-01 23:58N 34°14' E 132°32'0 0.0
2017-Dec-01 23:28N 34°14' E 132°32'0 0.0
2017-Dec-01 22:58N 34°14' E 132°32'0 0.0
2017-Dec-01 22:28N 34°14' E 132°32'0 0.0
2017-Dec-01 21:55N 34°14' E 132°32'0 0.3
2017-Dec-01 21:31N 34°14' E 132°32'3 6.4
2017-Dec-01 21:01N 34°11' E 132°30'610.3
2017-Dec-01 20:27N 34°06' E 132°26'611.6
2017-Dec-01 19:58N 34°02' E 132°31'510.6
2017-Dec-01 19:30N 34°04' E 132°36'  
Track history (hours):
 
Tides and Currents Weather Stations Pressure Air Temp Water Temp Dewpoint Dewpoint Depression Visibility Wind Speed Wind Dir Waves Ship Positions

Tukiboshimaru

Last reported at 2017-Dec-11 11:02 UTC. Time now 2017-Dec-12 21:56 UTC.
Position N 34°32' E 134°44'.

Length 84 m.

Type: Ship. MMSI: 431301596.

Date/timePositionNaut miles runAvg speedWind from/ knotsBaromVisibWave heightAir tempDewpointWater temp
2017-Dec-11 11:02N 34°32' E 134°44'210.4
2017-Dec-11 10:50N 34°33' E 134°46'410.6
2017-Dec-11 10:30N 34°34' E 134°50'5 9.8
2017-Dec-11 10:00N 34°36' E 134°56'5 9.5
2017-Dec-11 09:30N 34°37' E 135°01'510.1
2017-Dec-11 09:00N 34°36' E 135°07'510.9
2017-Dec-11 08:30N 34°36' E 135°14'510.8
2017-Dec-11 08:00N 34°37' E 135°20'510.4
2017-Dec-11 07:30N 34°35' E 135°26'1 2.4
2017-Dec-11 07:00N 34°34' E 135°27'0 0.0
2017-Dec-11 06:30N 34°34' E 135°27'0 0.0
2017-Dec-11 06:00N 34°34' E 135°27'0 0.0
2017-Dec-11 05:30N 34°34' E 135°27'0 0.0
2017-Dec-11 05:00N 34°34' E 135°27'0 0.0
2017-Dec-11 04:30N 34°34' E 135°27'0 0.0
2017-Dec-11 04:00N 34°34' E 135°27'0 0.0
2017-Dec-11 03:27N 34°34' E 135°27'0 0.0
2017-Dec-11 03:00N 34°34' E 135°27'0 0.0
2017-Dec-11 02:30N 34°34' E 135°27'0 0.0
2017-Dec-11 01:57N 34°34' E 135°27'0 0.0
2017-Dec-11 01:30N 34°34' E 135°27'0 0.0
2017-Dec-11 01:00N 34°34' E 135°27'0 0.0
2017-Dec-11 00:30N 34°34' E 135°27'0 0.0
2017-Dec-11 00:00N 34°34' E 135°27'2 3.6
2017-Dec-10 23:30N 34°35' E 135°26'510.8
2017-Dec-10 23:00N 34°36' E 135°19'611.6
2017-Dec-10 22:30N 34°35' E 135°12'611.9
2017-Dec-10 22:00N 34°35' E 135°05'612.0
2017-Dec-10 21:30N 34°37' E 134°58'612.2
2017-Dec-10 21:00N 34°34' E 134°51'611.6
2017-Dec-10 20:30N 34°32' E 134°45'611.6
2017-Dec-10 20:00N 34°30' E 134°38'611.6
2017-Dec-10 19:29N 34°27' E 134°31'9410.1
2017-Dec-10 10:10N 34°05' E 132°41'211.4
2017-Dec-10 09:59N 34°05' E 132°39'9 5.9
2017-Dec-10 08:26N 34°09' E 132°30'410.4
2017-Dec-10 08:00N 34°14' E 132°32'1 1.3
2017-Dec-10 07:28N 34°14' E 132°32'0 0.0
2017-Dec-10 06:59N 34°14' E 132°32'0 0.0
2017-Dec-10 06:29N 34°14' E 132°32'0 0.0
2017-Dec-10 05:59N 34°14' E 132°32'0 0.0
2017-Dec-10 05:29N 34°14' E 132°32'0 0.0
2017-Dec-10 04:59N 34°14' E 132°32'0 0.0
2017-Dec-10 04:29N 34°14' E 132°32'0 0.0
2017-Dec-10 03:59N 34°14' E 132°32'0 0.0
2017-Dec-10 03:29N 34°14' E 132°32'0 0.0
2017-Dec-10 02:56N 34°14' E 132°32'0 0.0
2017-Dec-10 02:29N 34°14' E 132°32'0 0.0
2017-Dec-10 01:56N 34°14' E 132°32'0 0.0
2017-Dec-10 01:29N 34°14' E 132°32'0 0.0
2017-Dec-10 00:59N 34°14' E 132°32'0 0.0
2017-Dec-10 00:29N 34°14' E 132°32'0 0.0
2017-Dec-09 23:55N 34°14' E 132°32'0 0.4
2017-Dec-09 23:28N 34°14' E 132°33'2 4.9
2017-Dec-09 23:00N 34°12' E 132°31'810.7
2017-Dec-09 22:18N 34°05' E 132°27'411.8
2017-Dec-09 21:56N 34°03' E 132°30'511.3
2017-Dec-09 21:30N 34°04' E 132°36'10411.4
2017-Dec-09 12:24N 34°30' E 134°37'711.4
2017-Dec-09 11:45N 34°33' E 134°46'310.8
2017-Dec-09 11:30N 34°34' E 134°49'510.3
2017-Dec-09 11:00N 34°36' E 134°54'5 9.5
2017-Dec-09 10:30N 34°37' E 134°60'4 8.4
2017-Dec-09 10:00N 34°36' E 135°05'510.7
2017-Dec-09 09:30N 34°36' E 135°11'611.4
2017-Dec-09 09:00N 34°36' E 135°18'611.3
2017-Dec-09 08:30N 34°36' E 135°25'2 4.5
2017-Dec-09 07:58N 34°34' E 135°27'0 0.0
2017-Dec-09 07:30N 34°34' E 135°27'0 0.0
2017-Dec-09 07:00N 34°34' E 135°27'0 0.0
2017-Dec-09 06:30N 34°34' E 135°27'0 0.0
2017-Dec-09 06:00N 34°34' E 135°27'0 0.0
2017-Dec-09 05:30N 34°34' E 135°27'0 0.0
2017-Dec-09 05:00N 34°34' E 135°27'0 0.0
2017-Dec-09 04:30N 34°34' E 135°27'0 0.0
2017-Dec-09 04:00N 34°34' E 135°27'0 0.0
2017-Dec-09 03:30N 34°34' E 135°27'0 0.0
2017-Dec-09 03:00N 34°34' E 135°27'0 0.0
2017-Dec-09 02:30N 34°34' E 135°27'0 0.0
2017-Dec-09 02:00N 34°34' E 135°27'0 0.0
2017-Dec-09 01:30N 34°34' E 135°27'0 0.0
2017-Dec-09 01:00N 34°34' E 135°27'0 0.0
2017-Dec-09 00:30N 34°34' E 135°27'0 0.0
2017-Dec-09 00:00N 34°34' E 135°27'0 0.0
2017-Dec-08 23:30N 34°34' E 135°27'0 0.0
2017-Dec-08 23:00N 34°34' E 135°27'2 3.6
2017-Dec-08 22:30N 34°35' E 135°26'510.8
2017-Dec-08 22:00N 34°36' E 135°19'611.7
2017-Dec-08 21:30N 34°35' E 135°12'612.8
2017-Dec-08 21:00N 34°35' E 135°04'713.4
2017-Dec-08 20:30N 34°36' E 134°56'714.0
2017-Dec-08 20:00N 34°33' E 134°48'712.5
2017-Dec-08 19:26N 34°30' E 134°40'612.2
2017-Dec-08 18:59N 34°28' E 134°34'9610.9
2017-Dec-08 10:12N 34°05' E 132°41'211.4
2017-Dec-08 09:59N 34°04' E 132°38'9 6.0
2017-Dec-08 08:27N 34°10' E 132°29'410.0
2017-Dec-08 08:00N 34°14' E 132°32'0 0.6
2017-Dec-08 07:26N 34°14' E 132°32'0 0.0
2017-Dec-08 06:58N 34°14' E 132°32'0 0.0
2017-Dec-08 06:28N 34°14' E 132°32'0 0.0
2017-Dec-08 05:49N 34°14' E 132°32'0 0.0
2017-Dec-08 05:25N 34°14' E 132°32'0 0.0
2017-Dec-08 04:58N 34°14' E 132°32'0 0.0
2017-Dec-08 04:28N 34°14' E 132°32'0 0.0
2017-Dec-08 03:55N 34°14' E 132°32'0 0.0
2017-Dec-08 03:28N 34°14' E 132°32'0 0.0
2017-Dec-08 02:58N 34°14' E 132°32'0 0.0
2017-Dec-08 02:28N 34°14' E 132°32'0 0.0
2017-Dec-08 01:55N 34°14' E 132°32'0 0.0
2017-Dec-08 01:10N 34°14' E 132°32'0 0.0
2017-Dec-08 00:58N 34°14' E 132°32'0 0.0
2017-Dec-08 00:25N 34°14' E 132°32'0 0.0
2017-Dec-07 23:58N 34°14' E 132°32'0 0.0
2017-Dec-07 23:28N 34°14' E 132°32'0 0.0
2017-Dec-07 22:53N 34°14' E 132°32'3 6.7
2017-Dec-07 22:29N 34°12' E 132°30'610.8
2017-Dec-07 21:55N 34°07' E 132°26'611.2
2017-Dec-07 21:25N 34°02' E 132°31'512.3
2017-Dec-07 20:59N 34°04' E 132°37'10311.9
2017-Dec-07 12:21N 34°30' E 134°37'512.3
2017-Dec-07 11:58N 34°32' E 134°43'612.4
2017-Dec-07 11:30N 34°34' E 134°49'612.3
2017-Dec-07 11:00N 34°37' E 134°56'510.4
2017-Dec-07 10:30N 34°37' E 135°02'611.3
2017-Dec-07 10:00N 34°36' E 135°09'612.1
2017-Dec-07 09:30N 34°37' E 135°17'611.9
2017-Dec-07 09:00N 34°36' E 135°24'3 5.8
2017-Dec-07 08:25N 34°34' E 135°27'0 0.0
2017-Dec-07 07:58N 34°34' E 135°27'0 0.0
2017-Dec-07 07:25N 34°34' E 135°27'0 0.0
2017-Dec-07 06:58N 34°34' E 135°27'0 0.0
2017-Dec-07 06:28N 34°34' E 135°27'0 0.0
2017-Dec-07 05:58N 34°34' E 135°27'0 0.0
2017-Dec-07 05:28N 34°34' E 135°27'0 0.0
2017-Dec-07 04:55N 34°34' E 135°27'0 0.0
2017-Dec-07 04:28N 34°34' E 135°27'0 0.0
2017-Dec-07 03:58N 34°34' E 135°27'0 0.0
2017-Dec-07 03:28N 34°34' E 135°27'0 0.0
2017-Dec-07 02:58N 34°34' E 135°27'0 0.0
2017-Dec-07 02:28N 34°34' E 135°27'0 0.1
2017-Dec-07 02:00N 34°34' E 135°27'3 6.9
2017-Dec-07 01:30N 34°36' E 135°24'611.5
2017-Dec-07 01:00N 34°36' E 135°17'611.7
2017-Dec-07 00:30N 34°35' E 135°10'510.8
2017-Dec-07 00:00N 34°36' E 135°03'4 7.4
2017-Dec-06 23:30N 34°37' E 134°59'5 9.6
2017-Dec-06 23:00N 34°35' E 134°54'510.6
2017-Dec-06 22:30N 34°33' E 134°48'611.5
2017-Dec-06 22:00N 34°31' E 134°41'611.9
2017-Dec-06 21:30N 34°29' E 134°35'  
2017-Dec-04 09:16N 34°10' E 132°29'310.9
2017-Dec-04 09:00N 34°12' E 132°31'2 3.9
2017-Dec-04 08:29N 34°14' E 132°32'0 0.0
2017-Dec-04 07:59N 34°14' E 132°32'0 0.0
2017-Dec-04 07:29N 34°14' E 132°32'0 0.0
2017-Dec-04 06:54N 34°14' E 132°32'0 0.0
2017-Dec-04 06:29N 34°14' E 132°32'0 0.0
2017-Dec-04 05:59N 34°14' E 132°32'0 0.0
2017-Dec-04 05:29N 34°14' E 132°32'0 0.0
2017-Dec-04 04:59N 34°14' E 132°32'0 0.0
2017-Dec-04 04:29N 34°14' E 132°32'0 0.0
2017-Dec-04 03:59N 34°14' E 132°32'0 0.0
2017-Dec-04 03:26N 34°14' E 132°32'0 0.0
2017-Dec-04 02:59N 34°14' E 132°32'0 0.0
2017-Dec-04 02:29N 34°14' E 132°32'0 0.0
2017-Dec-04 01:59N 34°14' E 132°32'0 0.0
2017-Dec-04 01:29N 34°14' E 132°32'0 0.0
2017-Dec-04 00:59N 34°14' E 132°32'0 0.0
2017-Dec-04 00:29N 34°14' E 132°32'0 0.0
2017-Dec-03 23:59N 34°14' E 132°32'0 0.0
2017-Dec-03 23:31N 34°14' E 132°32'2 3.6
2017-Dec-03 23:00N 34°12' E 132°31'810.7
2017-Dec-03 22:16N 34°05' E 132°27'412.7
2017-Dec-03 21:56N 34°03' E 132°30'510.6
2017-Dec-03 21:30N 34°04' E 132°36'10611.2
2017-Dec-03 11:57N 34°31' E 134°40'713.4
2017-Dec-03 11:26N 34°34' E 134°48'614.5
2017-Dec-03 11:00N 34°36' E 134°55'713.4
2017-Dec-03 10:31N 34°36' E 135°03'713.1
2017-Dec-03 10:01N 34°36' E 135°11'612.4
2017-Dec-03 09:31N 34°37' E 135°19'611.8
2017-Dec-03 09:00N 34°35' E 135°26'2 3.2
2017-Dec-03 08:30N 34°34' E 135°27'0 0.0
2017-Dec-03 08:00N 34°34' E 135°27'0 0.0
2017-Dec-03 07:30N 34°34' E 135°27'0 0.0
2017-Dec-03 07:00N 34°34' E 135°27'0 0.0
2017-Dec-03 06:30N 34°34' E 135°27'0 0.0
2017-Dec-03 06:00N 34°34' E 135°27'0 0.0
2017-Dec-03 05:30N 34°34' E 135°27'0 0.0
2017-Dec-03 05:00N 34°34' E 135°27'0 0.0
2017-Dec-03 04:30N 34°34' E 135°27'0 0.0
2017-Dec-03 04:00N 34°34' E 135°27'0 0.0
2017-Dec-03 03:30N 34°34' E 135°27'0 0.0
2017-Dec-03 03:00N 34°34' E 135°27'0 0.0
2017-Dec-03 02:30N 34°34' E 135°27'0 0.0
2017-Dec-03 02:00N 34°34' E 135°27'0 0.0
2017-Dec-03 01:30N 34°34' E 135°27'1 1.1
2017-Dec-03 00:58N 34°35' E 135°27'2 4.8
2017-Dec-03 00:31N 34°36' E 135°25'1 2.6
2017-Dec-02 23:59N 34°36' E 135°23'0 0.0
2017-Dec-02 23:29N 34°36' E 135°23'0 0.0
2017-Dec-02 22:59N 34°36' E 135°23'0 0.0
2017-Dec-02 22:29N 34°36' E 135°23'0 0.2
2017-Dec-02 22:00N 34°36' E 135°23'510.3
2017-Dec-02 21:31N 34°35' E 135°17'611.6
2017-Dec-02 21:00N 34°35' E 135°10'611.0
2017-Dec-02 20:30N 34°36' E 135°03'4 7.8
2017-Dec-02 20:00N 34°37' E 134°58'511.0
2017-Dec-02 19:30N 34°34' E 134°53'611.7
2017-Dec-02 19:00N 34°32' E 134°46'611.8
2017-Dec-02 18:30N 34°30' E 134°39'712.0
2017-Dec-02 17:55N 34°27' E 134°31'9412.1
2017-Dec-02 10:09N 34°05' E 132°41'212.5
2017-Dec-02 09:59N 34°05' E 132°39'9 6.0
2017-Dec-02 08:27N 34°10' E 132°29'510.6
2017-Dec-02 08:00N 34°14' E 132°32'0 0.5
2017-Dec-02 07:28N 34°14' E 132°32'0 0.0
2017-Dec-02 06:55N 34°14' E 132°32'0 0.0
2017-Dec-02 06:28N 34°14' E 132°32'0 0.0
2017-Dec-02 05:58N 34°14' E 132°32'0 0.0
2017-Dec-02 05:28N 34°14' E 132°32'0 0.0
2017-Dec-02 04:58N 34°14' E 132°32'0 0.0
2017-Dec-02 04:25N 34°14' E 132°32'0 0.0
2017-Dec-02 03:58N 34°14' E 132°32'0 0.0
2017-Dec-02 03:28N 34°14' E 132°32'0 0.0
2017-Dec-02 02:58N 34°14' E 132°32'0 0.0
2017-Dec-02 02:28N 34°14' E 132°32'0 0.0
2017-Dec-02 01:58N 34°14' E 132°32'0 0.0
2017-Dec-02 01:28N 34°14' E 132°32'0 0.0
2017-Dec-02 00:58N 34°14' E 132°32'0 0.0
2017-Dec-02 00:22N 34°14' E 132°32'0 0.0
2017-Dec-01 23:58N 34°14' E 132°32'0 0.0
2017-Dec-01 23:28N 34°14' E 132°32'0 0.0
2017-Dec-01 22:58N 34°14' E 132°32'0 0.0
2017-Dec-01 22:28N 34°14' E 132°32'0 0.0
2017-Dec-01 21:55N 34°14' E 132°32'0 0.3
2017-Dec-01 21:31N 34°14' E 132°32'3 6.4
2017-Dec-01 21:01N 34°11' E 132°30'610.3
2017-Dec-01 20:27N 34°06' E 132°26'611.6
2017-Dec-01 19:58N 34°02' E 132°31'510.6
2017-Dec-01 19:30N 34°04' E 132°36'  

Dump ship's entire track history